Time;durP1;ratioP1;P1;durP2;ratioP2;P2;SDS_P1;SDS_P2;PMS_P1;PMS_P2;Temp;Humidity;BMP_temperature;BMP_pressure;BME280_temperature;BME280_humidity;BME280_pressure;Samples;Min_cycle;Max_cycle;Signal;HPM_P1;HPM_P2
2024/01/27 00:01:45;;;;;;;;;;;2.80;86.50;;;;;;5006794;28;87485;-50
2024/01/27 00:04:10;;;;;;;;;;;2.80;86.40;;;;;;5006744;28;87097;-49
2024/01/27 00:06:36;;;;;;;;;;;2.80;86.40;;;;;;5009231;28;87635;-50
2024/01/27 00:09:02;;;;;;;;;;;2.70;86.30;;;;;;5006433;28;87387;-50
2024/01/27 00:11:27;;;;;;;;;;;2.70;86.40;;;;;;5005847;28;87817;-49
2024/01/27 00:13:53;;;;;;;;;;;2.70;86.40;;;;;;5006418;28;87503;-51
2024/01/27 00:16:19;;;;;;;;;;;2.70;86.30;;;;;;5006155;28;86259;-49
2024/01/27 00:18:45;;;;;;;;;;;2.80;86.40;;;;;;5006328;28;87039;-49
2024/01/27 00:21:11;;;;;;;;;;;2.70;86.30;;;;;;5002297;28;87427;-51
2024/01/27 00:23:37;;;;;;;;;;;2.70;86.30;;;;;;5005555;28;88182;-48
2024/01/27 00:26:02;;;;;;;;;;;2.70;86.50;;;;;;5006945;28;87554;-50
2024/01/27 00:28:28;;;;;;;;;;;2.70;86.40;;;;;;5005639;28;87457;-50
2024/01/27 00:30:53;;;;;;;;;;;2.70;86.40;;;;;;5006728;28;86784;-50
2024/01/27 00:33:19;;;;;;;;;;;2.70;86.50;;;;;;5006258;28;86906;-50
2024/01/27 00:35:44;;;;;;;;;;;2.70;86.50;;;;;;5005487;28;87095;-49
2024/01/27 00:38:10;;;;;;;;;;;2.70;86.40;;;;;;5006423;28;86900;-49
2024/01/27 00:40:35;;;;;;;;;;;2.60;86.40;;;;;;5006630;28;87168;-48
2024/01/27 00:43:04;;;;;;;;;;;2.60;86.30;;;;;;5004448;28;87088;-52
2024/01/27 00:45:30;;;;;;;;;;;2.60;86.30;;;;;;5006140;28;87061;-49
2024/01/27 00:47:56;;;;;;;;;;;2.60;86.40;;;;;;5007915;28;89366;-50
2024/01/27 00:50:21;;;;;;;;;;;2.60;86.30;;;;;;5006277;28;87666;-49
2024/01/27 00:52:47;;;;;;;;;;;2.60;86.40;;;;;;5004581;28;87362;-49
2024/01/27 00:55:12;;;;;;;;;;;2.60;86.20;;;;;;5005839;28;87450;-48
2024/01/27 00:57:38;;;;;;;;;;;2.60;86.20;;;;;;5002339;28;86782;-49
2024/01/27 01:00:06;;;;;;;;;;;2.60;86.80;;;;;;5005753;28;88463;-49
2024/01/27 01:02:32;;;;;;;;;;;2.60;86.20;;;;;;5006087;28;87080;-52
2024/01/27 01:04:57;;;;;;;;;;;2.60;86.20;;;;;;5006687;28;87374;-50
2024/01/27 01:07:23;;;;;;;;;;;2.60;86.20;;;;;;5005431;28;87534;-52
2024/01/27 01:09:48;;;;;;;;;;;2.60;86.30;;;;;;5008342;28;87067;-51
2024/01/27 01:12:15;;;;;;;;;;;2.60;86.20;;;;;;5005052;28;88500;-51
2024/01/27 01:14:41;;;;;;;;;;;2.60;86.20;;;;;;5002539;28;87012;-50
2024/01/27 01:17:07;;;;;;;;;;;2.60;86.30;;;;;;5006043;28;86972;-49
2024/01/27 01:19:32;;;;;;;;;;;2.50;86.20;;;;;;5005852;28;87976;-50
2024/01/27 01:21:58;;;;;;;;;;;2.50;86.20;;;;;;5005910;28;87051;-48
2024/01/27 01:24:23;;;;;;;;;;;2.50;86.20;;;;;;5006052;28;87013;-51
2024/01/27 01:26:49;;;;;;;;;;;2.50;86.20;;;;;;5005789;28;87267;-49
2024/01/27 01:29:14;;;;;;;;;;;2.50;86.20;;;;;;5004718;28;86272;-48
2024/01/27 01:31:43;;;;;;;;;;;2.50;86.30;;;;;;5010761;28;87147;-48
2024/01/27 01:34:08;;;;;;;;;;;2.50;86.20;;;;;;5008881;28;86972;-50
2024/01/27 01:36:34;;;;;;;;;;;2.50;86.30;;;;;;5007519;28;87911;-49
2024/01/27 01:38:59;;;;;;;;;;;2.50;86.30;;;;;;5008672;28;87726;-48
2024/01/27 01:41:25;;;;;;;;;;;2.50;86.30;;;;;;5009210;28;87030;-51
2024/01/27 01:43:51;;;;;;;;;;;2.50;86.30;;;;;;5008628;28;86936;-49
2024/01/27 01:46:16;;;;;;;;;;;2.40;86.20;;;;;;5008254;28;87417;-50
2024/01/27 01:48:42;;;;;;;;;;;2.50;86.40;;;;;;5008194;28;86976;-50
2024/01/27 01:51:08;;;;;;;;;;;2.40;86.20;;;;;;5008865;28;86801;-50
2024/01/27 01:53:34;;;;;;;;;;;2.50;86.20;;;;;;5010508;28;87644;-52
2024/01/27 01:56:00;;;;;;;;;;;2.50;86.20;;;;;;5008983;28;86956;-50
2024/01/27 01:58:33;;;;;;;;;;;2.50;86.20;;;;;;5007741;28;87505;-50
2024/01/27 02:00:59;;;;;;;;;;;2.40;86.20;;;;;;5007916;28;87901;-49
2024/01/27 02:03:25;;;;;;;;;;;2.40;86.20;;;;;;5008891;28;87719;-51
2024/01/27 02:05:51;;;;;;;;;;;2.40;86.30;;;;;;5008177;28;87579;-49
2024/01/27 02:08:17;;;;;;;;;;;2.40;86.20;;;;;;5008118;28;87003;-50
2024/01/27 02:10:42;;;;;;;;;;;2.40;86.30;;;;;;5008190;28;86964;-50
2024/01/27 02:13:21;;;;;;;;;;;2.30;86.20;;;;;;5008009;28;87515;-51
2024/01/27 02:15:47;;;;;;;;;;;2.40;86.20;;;;;;5011391;28;87066;-52
2024/01/27 02:18:13;;;;;;;;;;;2.40;86.20;;;;;;5007846;28;86776;-49
2024/01/27 02:20:38;;;;;;;;;;;2.40;86.20;;;;;;5006101;28;86885;-48
2024/01/27 02:23:04;;;;;;;;;;;2.30;86.30;;;;;;5007816;28;86921;-51
2024/01/27 02:25:30;;;;;;;;;;;2.40;86.20;;;;;;5007539;28;88352;-50
2024/01/27 02:27:56;;;;;;;;;;;2.30;86.20;;;;;;5008470;28;86977;-50
2024/01/27 02:30:22;;;;;;;;;;;2.40;86.20;;;;;;5007824;28;87102;-49
2024/01/27 02:32:47;;;;;;;;;;;2.40;86.30;;;;;;5007692;28;87558;-49
2024/01/27 02:35:14;;;;;;;;;;;2.30;86.10;;;;;;5004077;28;87010;-51
2024/01/27 02:37:40;;;;;;;;;;;2.30;86.10;;;;;;5010878;28;86869;-49
2024/01/27 02:40:07;;;;;;;;;;;2.30;86.10;;;;;;5007703;28;86931;-53
2024/01/27 02:42:33;;;;;;;;;;;2.40;86.20;;;;;;5008659;28;87697;-50
2024/01/27 02:44:58;;;;;;;;;;;2.30;86.10;;;;;;5006576;28;88164;-49
2024/01/27 02:47:24;;;;;;;;;;;2.30;86.10;;;;;;5006826;28;87023;-50
2024/01/27 02:49:49;;;;;;;;;;;2.30;86.20;;;;;;5007488;28;87988;-50
2024/01/27 02:52:15;;;;;;;;;;;2.30;86.20;;;;;;5006667;28;87565;-50
2024/01/27 02:54:41;;;;;;;;;;;2.30;86.20;;;;;;5003838;28;87056;-50
2024/01/27 02:57:06;;;;;;;;;;;2.30;86.10;;;;;;5008516;28;86930;-49
2024/01/27 02:59:32;;;;;;;;;;;2.30;86.10;;;;;;5005184;28;88429;-48
2024/01/27 03:01:57;;;;;;;;;;;2.30;86.10;;;;;;5007875;28;87001;-49
2024/01/27 03:04:23;;;;;;;;;;;2.30;86.30;;;;;;5007311;28;87446;-49
2024/01/27 03:06:48;;;;;;;;;;;2.20;86.20;;;;;;5007620;28;86370;-50
2024/01/27 03:09:14;;;;;;;;;;;2.20;86.20;;;;;;5007073;28;87040;-49
2024/01/27 03:11:39;;;;;;;;;;;2.20;86.20;;;;;;5006300;28;88540;-49
2024/01/27 03:14:05;;;;;;;;;;;2.20;86.20;;;;;;5006624;28;88281;-52
2024/01/27 03:16:31;;;;;;;;;;;2.30;86.30;;;;;;5007212;28;87605;-49
2024/01/27 03:18:56;;;;;;;;;;;2.20;86.20;;;;;;5010011;28;88415;-48
2024/01/27 03:21:22;;;;;;;;;;;2.20;86.20;;;;;;5007692;28;86737;-49
2024/01/27 03:23:47;;;;;;;;;;;2.20;86.20;;;;;;5004779;28;87637;-49
2024/01/27 03:26:13;;;;;;;;;;;2.20;86.20;;;;;;5007633;28;87024;-49
2024/01/27 03:28:39;;;;;;;;;;;2.20;86.20;;;;;;5007655;28;86977;-50
2024/01/27 03:31:04;;;;;;;;;;;2.20;86.30;;;;;;5006968;28;86222;-49
2024/01/27 03:33:30;;;;;;;;;;;2.20;86.30;;;;;;5007042;28;86971;-49
2024/01/27 03:35:56;;;;;;;;;;;2.20;86.30;;;;;;5007369;28;87007;-49
2024/01/27 03:38:21;;;;;;;;;;;2.20;86.40;;;;;;5006140;28;89383;-48
2024/01/27 03:40:47;;;;;;;;;;;2.20;86.50;;;;;;5010234;28;87105;-50
2024/01/27 03:43:13;;;;;;;;;;;2.10;86.50;;;;;;5006883;28;87331;-51
2024/01/27 03:45:38;;;;;;;;;;;2.20;86.40;;;;;;5003946;28;87065;-51
2024/01/27 03:48:04;;;;;;;;;;;2.20;86.40;;;;;;5007211;28;86880;-49
2024/01/27 03:50:30;;;;;;;;;;;2.20;86.40;;;;;;5005679;28;87408;-50
2024/01/27 03:52:55;;;;;;;;;;;2.10;86.40;;;;;;5005987;28;87029;-49
2024/01/27 03:55:21;;;;;;;;;;;2.20;86.50;;;;;;5006494;28;86610;-50
2024/01/27 03:57:46;;;;;;;;;;;2.10;86.40;;;;;;5003631;28;87426;-51
2024/01/27 04:00:12;;;;;;;;;;;2.10;86.40;;;;;;5006359;28;87014;-50
2024/01/27 04:02:38;;;;;;;;;;;2.10;86.40;;;;;;5008803;28;87846;-50
2024/01/27 04:05:05;;;;;;;;;;;2.10;86.40;;;;;;5006711;28;86900;-49
2024/01/27 04:07:31;;;;;;;;;;;2.10;86.40;;;;;;5006215;28;87714;-50
2024/01/27 04:09:57;;;;;;;;;;;2.10;86.30;;;;;;5006252;28;87517;-51
2024/01/27 04:12:22;;;;;;;;;;;2.10;86.40;;;;;;5006623;28;87028;-51
2024/01/27 04:14:48;;;;;;;;;;;2.10;86.70;;;;;;5006303;28;86914;-51
2024/01/27 04:17:13;;;;;;;;;;;2.10;86.60;;;;;;5006190;28;89635;-48
2024/01/27 04:19:39;;;;;;;;;;;2.10;86.60;;;;;;5006014;28;86715;-50
2024/01/27 04:22:04;;;;;;;;;;;2.10;86.50;;;;;;5002102;28;86985;-52
2024/01/27 04:24:30;;;;;;;;;;;2.00;86.50;;;;;;5009346;28;87552;-50
2024/01/27 04:26:55;;;;;;;;;;;2.10;86.60;;;;;;5005825;28;87870;-48
2024/01/27 04:29:21;;;;;;;;;;;2.00;86.50;;;;;;5006394;28;88648;-51
2024/01/27 04:31:46;;;;;;;;;;;2.10;86.60;;;;;;5006082;28;87632;-53
2024/01/27 04:34:12;;;;;;;;;;;2.10;86.50;;;;;;5006655;28;86995;-51
2024/01/27 04:36:38;;;;;;;;;;;2.00;86.50;;;;;;5006279;28;87672;-49
2024/01/27 04:39:04;;;;;;;;;;;2.00;86.50;;;;;;5006388;28;86869;-50
2024/01/27 04:41:29;;;;;;;;;;;2.00;86.60;;;;;;5004412;27;88124;-51
2024/01/27 04:43:56;;;;;;;;;;;2.00;86.60;;;;;;5006474;28;88123;-49
2024/01/27 04:46:22;;;;;;;;;;;2.00;86.70;;;;;;5006288;28;87155;-51
2024/01/27 04:48:48;;;;;;;;;;;2.00;86.60;;;;;;5005634;28;88406;-51
2024/01/27 04:51:13;;;;;;;;;;;2.00;86.70;;;;;;5005775;28;87955;-51
2024/01/27 04:53:39;;;;;;;;;;;2.00;86.70;;;;;;5004906;28;88514;-49
2024/01/27 04:56:07;;;;;;;;;;;2.00;86.70;;;;;;5005976;28;87583;-50
2024/01/27 04:58:34;;;;;;;;;;;2.00;86.80;;;;;;5006303;28;86989;-50
2024/01/27 05:01:00;;;;;;;;;;;2.00;86.70;;;;;;5003573;28;87039;-51
2024/01/27 05:03:25;;;;;;;;;;;1.90;86.70;;;;;;5007650;28;88529;-50
2024/01/27 05:05:51;;;;;;;;;;;2.00;86.80;;;;;;5012730;28;86994;-49
2024/01/27 05:08:16;;;;;;;;;;;2.00;86.80;;;;;;5009698;28;86534;-50
2024/01/27 05:10:42;;;;;;;;;;;2.00;86.80;;;;;;5009837;28;86960;-53
2024/01/27 05:13:07;;;;;;;;;;;2.00;86.80;;;;;;5008413;28;87102;-49
2024/01/27 05:15:33;;;;;;;;;;;2.00;86.80;;;;;;5007538;28;88277;-50
2024/01/27 05:17:59;;;;;;;;;;;1.90;86.70;;;;;;5008923;28;87865;-49
2024/01/27 05:20:24;;;;;;;;;;;1.90;86.70;;;;;;5009342;28;87848;-48
2024/01/27 05:22:50;;;;;;;;;;;1.90;86.80;;;;;;5008516;28;87400;-49
2024/01/27 05:25:16;;;;;;;;;;;1.90;86.80;;;;;;5008268;28;87303;-48
2024/01/27 05:27:42;;;;;;;;;;;1.90;86.90;;;;;;5011143;28;87194;-50
2024/01/27 05:30:08;;;;;;;;;;;1.90;86.90;;;;;;5009462;28;87114;-49
2024/01/27 05:32:33;;;;;;;;;;;1.90;86.80;;;;;;4984976;27;86632;-50
2024/01/27 05:34:59;;;;;;;;;;;1.90;86.80;;;;;;4980714;27;87422;-51
2024/01/27 05:37:25;;;;;;;;;;;1.90;86.90;;;;;;4985486;27;86974;-49
2024/01/27 05:39:50;;;;;;;;;;;1.90;86.90;;;;;;5007042;28;87800;-49
2024/01/27 05:42:16;;;;;;;;;;;1.90;86.90;;;;;;4985265;27;86923;-49
2024/01/27 05:44:41;;;;;;;;;;;1.90;87.00;;;;;;5009193;28;87032;-50
2024/01/27 05:47:07;;;;;;;;;;;1.90;87.00;;;;;;5006207;28;87770;-50
2024/01/27 05:49:33;;;;;;;;;;;1.90;87.00;;;;;;5011182;28;88162;-49
2024/01/27 05:51:59;;;;;;;;;;;1.90;87.10;;;;;;5008983;28;87967;-50
2024/01/27 05:54:25;;;;;;;;;;;1.80;87.10;;;;;;5008246;28;87815;-49
2024/01/27 05:56:50;;;;;;;;;;;1.90;87.10;;;;;;5008704;28;86371;-50
2024/01/27 05:59:16;;;;;;;;;;;1.80;87.10;;;;;;5005411;28;87009;-49
2024/01/27 06:01:43;;;;;;;;;;;1.80;87.00;;;;;;5005832;28;87442;-49
2024/01/27 06:04:09;;;;;;;;;;;1.80;87.20;;;;;;5007685;28;87905;-49
2024/01/27 06:06:37;;;;;;;;;;;1.80;87.10;;;;;;5005093;28;87421;-51
2024/01/27 06:09:03;;;;;;;;;;;1.80;87.20;;;;;;5007988;28;87412;-50
2024/01/27 06:11:29;;;;;;;;;;;1.80;87.20;;;;;;5011461;28;87003;-49
2024/01/27 06:13:57;;;;;;;;;;;1.80;87.20;;;;;;5007142;28;86886;-49
2024/01/27 06:16:23;;;;;;;;;;;1.80;87.30;;;;;;5008305;28;87001;-51
2024/01/27 06:18:49;;;;;;;;;;;1.80;87.30;;;;;;5007429;27;87100;-53
2024/01/27 06:21:15;;;;;;;;;;;1.80;87.30;;;;;;5008232;28;86774;-52
2024/01/27 06:23:40;;;;;;;;;;;1.80;87.30;;;;;;5007769;27;87118;-50
2024/01/27 06:26:06;;;;;;;;;;;1.80;87.30;;;;;;5008560;28;86959;-49
2024/01/27 06:28:32;;;;;;;;;;;1.80;87.40;;;;;;5006646;28;88456;-49
2024/01/27 06:30:58;;;;;;;;;;;1.80;87.40;;;;;;5006606;28;87168;-49
2024/01/27 06:33:23;;;;;;;;;;;1.80;87.40;;;;;;5006960;28;89203;-50
2024/01/27 06:35:49;;;;;;;;;;;1.80;87.40;;;;;;5004137;28;87608;-51
2024/01/27 06:38:14;;;;;;;;;;;1.80;87.40;;;;;;5008466;28;86984;-51
2024/01/27 06:40:40;;;;;;;;;;;1.80;87.40;;;;;;5008302;28;87755;-50
2024/01/27 06:43:05;;;;;;;;;;;1.80;87.50;;;;;;5007566;28;86975;-51
2024/01/27 06:45:31;;;;;;;;;;;1.70;87.50;;;;;;5004393;28;86793;-50
2024/01/27 06:47:56;;;;;;;;;;;1.80;87.50;;;;;;5007214;28;87478;-52
2024/01/27 06:50:23;;;;;;;;;;;1.70;87.60;;;;;;5008159;28;87263;-50
2024/01/27 06:52:48;;;;;;;;;;;1.70;87.50;;;;;;5009895;28;87993;-50
2024/01/27 06:55:14;;;;;;;;;;;1.70;87.50;;;;;;5007067;28;87034;-52
2024/01/27 06:57:40;;;;;;;;;;;1.70;87.50;;;;;;5007677;28;87978;-51
2024/01/27 07:00:06;;;;;;;;;;;1.70;87.60;;;;;;5007456;28;88544;-50
2024/01/27 07:02:32;;;;;;;;;;;1.70;87.60;;;;;;5006039;28;87037;-51
2024/01/27 07:04:57;;;;;;;;;;;1.70;87.60;;;;;;5006868;28;87103;-50
2024/01/27 07:07:25;;;;;;;;;;;1.70;87.90;;;;;;5002303;28;87249;-52
2024/01/27 07:09:51;;;;;;;;;;;1.70;87.90;;;;;;5008073;28;86258;-50
2024/01/27 07:12:16;;;;;;;;;;;1.70;87.90;;;;;;5007143;28;87257;-50
2024/01/27 07:14:42;;;;;;;;;;;1.70;87.80;;;;;;5008870;28;88318;-52
2024/01/27 07:17:07;;;;;;;;;;;1.70;87.90;;;;;;5007238;28;87913;-49
2024/01/27 07:19:33;;;;;;;;;;;1.70;87.80;;;;;;5003281;28;87542;-49
2024/01/27 07:21:59;;;;;;;;;;;1.70;87.80;;;;;;5007643;28;87170;-52
2024/01/27 07:24:25;;;;;;;;;;;1.70;87.80;;;;;;5007672;28;87818;-52
2024/01/27 07:26:51;;;;;;;;;;;1.70;87.90;;;;;;5006855;28;88447;-49
2024/01/27 07:29:17;;;;;;;;;;;1.70;87.90;;;;;;5006107;28;87866;-49
2024/01/27 07:31:42;;;;;;;;;;;1.70;87.90;;;;;;5007244;28;86795;-48
2024/01/27 07:34:08;;;;;;;;;;;1.70;87.90;;;;;;5005911;28;87744;-50
2024/01/27 07:36:34;;;;;;;;;;;1.60;87.90;;;;;;5010128;28;87137;-49
2024/01/27 07:38:59;;;;;;;;;;;1.60;88.00;;;;;;5006424;28;88460;-52
2024/01/27 07:41:25;;;;;;;;;;;1.60;88.20;;;;;;5006332;28;87822;-53
2024/01/27 07:43:51;;;;;;;;;;;1.60;88.00;;;;;;5006303;28;87696;-50
2024/01/27 07:46:16;;;;;;;;;;;1.60;88.10;;;;;;5003660;28;88444;-52
2024/01/27 07:48:42;;;;;;;;;;;1.60;88.00;;;;;;5005643;28;86986;-50
2024/01/27 07:51:07;;;;;;;;;;;1.60;88.10;;;;;;5006833;28;88376;-48
2024/01/27 07:53:33;;;;;;;;;;;1.60;88.10;;;;;;5006542;28;87533;-48
2024/01/27 07:55:59;;;;;;;;;;;1.60;88.10;;;;;;5006399;28;87241;-51
2024/01/27 07:58:25;;;;;;;;;;;1.60;88.10;;;;;;5004504;28;89890;-51
2024/01/27 08:00:51;;;;;;;;;;;1.70;88.00;;;;;;5006581;28;87023;-49
2024/01/27 08:03:16;;;;;;;;;;;1.60;88.10;;;;;;5006164;28;86931;-50
2024/01/27 08:05:42;;;;;;;;;;;1.60;88.10;;;;;;5005366;28;88312;-51
2024/01/27 08:08:07;;;;;;;;;;;1.60;88.30;;;;;;5005920;28;87233;-50
2024/01/27 08:10:33;;;;;;;;;;;1.60;88.20;;;;;;5002914;28;86992;-50
2024/01/27 08:12:59;;;;;;;;;;;1.60;88.20;;;;;;5005804;28;88622;-49
2024/01/27 08:15:24;;;;;;;;;;;1.60;88.80;;;;;;5006002;28;87121;-48
2024/01/27 08:17:50;;;;;;;;;;;1.60;88.30;;;;;;5006320;28;87094;-49
2024/01/27 08:20:15;;;;;;;;;;;1.60;88.40;;;;;;5008490;28;87315;-49
2024/01/27 08:22:41;;;;;;;;;;;1.60;88.30;;;;;;5007198;28;86262;-52
2024/01/27 08:25:07;;;;;;;;;;;1.70;88.30;;;;;;5002024;28;87727;-50
2024/01/27 08:27:32;;;;;;;;;;;1.70;88.10;;;;;;5006708;28;87012;-51
2024/01/27 08:29:58;;;;;;;;;;;1.70;88.00;;;;;;5001687;28;87980;-48
2024/01/27 08:32:24;;;;;;;;;;;1.70;88.20;;;;;;5005662;28;88688;-49
2024/01/27 08:34:50;;;;;;;;;;;1.70;88.10;;;;;;5004185;28;87143;-53
2024/01/27 08:37:17;;;;;;;;;;;1.70;88.20;;;;;;5005374;28;86936;-48
2024/01/27 08:39:43;;;;;;;;;;;1.70;88.10;;;;;;5006267;28;87573;-49
2024/01/27 08:42:08;;;;;;;;;;;1.70;88.10;;;;;;5008795;28;87602;-50
2024/01/27 08:44:34;;;;;;;;;;;1.70;88.30;;;;;;5006220;28;86744;-51
2024/01/27 08:46:59;;;;;;;;;;;1.70;88.40;;;;;;5007179;28;86530;-48
2024/01/27 08:49:25;;;;;;;;;;;1.70;88.30;;;;;;5005685;28;87028;-48
2024/01/27 08:51:50;;;;;;;;;;;1.70;88.30;;;;;;5005835;28;87591;-52
2024/01/27 08:54:16;;;;;;;;;;;1.70;88.20;;;;;;5004880;28;87953;-49
2024/01/27 08:56:41;;;;;;;;;;;1.60;88.40;;;;;;4997356;28;89125;-49
2024/01/27 08:59:07;;;;;;;;;;;1.70;88.40;;;;;;5005331;28;88471;-47
2024/01/27 09:01:32;;;;;;;;;;;1.70;88.30;;;;;;5008690;28;87057;-48
2024/01/27 09:03:58;;;;;;;;;;;1.80;88.20;;;;;;5004136;28;88438;-48
2024/01/27 09:06:24;;;;;;;;;;;1.80;88.10;;;;;;5005915;28;87168;-49
2024/01/27 09:08:49;;;;;;;;;;;1.80;88.10;;;;;;5004206;28;89584;-52
2024/01/27 09:11:15;;;;;;;;;;;1.70;88.10;;;;;;5005584;28;86674;-48
2024/01/27 09:13:40;;;;;;;;;;;1.70;88.40;;;;;;5005428;28;87010;-49
2024/01/27 09:16:06;;;;;;;;;;;1.70;88.70;;;;;;5006178;28;86905;-48
2024/01/27 09:18:31;;;;;;;;;;;1.70;88.70;;;;;;5005107;28;88414;-48
2024/01/27 09:20:57;;;;;;;;;;;1.70;88.70;;;;;;5003163;28;86909;-50
2024/01/27 09:23:22;;;;;;;;;;;1.60;88.80;;;;;;5008652;28;86984;-49
2024/01/27 09:25:48;;;;;;;;;;;1.60;88.80;;;;;;5005776;28;86966;-50
2024/01/27 09:28:15;;;;;;;;;;;1.70;88.60;;;;;;5006084;28;87056;-49
2024/01/27 09:30:41;;;;;;;;;;;1.70;88.50;;;;;;5005279;28;88488;-49
2024/01/27 09:33:06;;;;;;;;;;;1.70;88.70;;;;;;5005957;28;86940;-49
2024/01/27 09:35:32;;;;;;;;;;;1.70;88.80;;;;;;5005846;28;86723;-51
2024/01/27 09:37:58;;;;;;;;;;;1.70;88.50;;;;;;5005621;28;87519;-48
2024/01/27 09:40:23;;;;;;;;;;;1.70;88.70;;;;;;5005771;28;87769;-51
2024/01/27 09:42:55;;;;;;;;;;;1.70;88.80;;;;;;5005062;28;87818;-50
2024/01/27 09:45:22;;;;;;;;;;;1.70;88.90;;;;;;5008214;28;86841;-49
2024/01/27 09:47:47;;;;;;;;;;;1.70;88.80;;;;;;5005432;28;87876;-49
2024/01/27 09:50:14;;;;;;;;;;;1.70;88.70;;;;;;5006627;28;87464;-49
2024/01/27 09:52:40;;;;;;;;;;;1.70;88.70;;;;;;5009070;28;87074;-49
2024/01/27 09:55:06;;;;;;;;;;;1.70;88.70;;;;;;5008448;28;88615;-50
2024/01/27 09:57:31;;;;;;;;;;;1.70;88.70;;;;;;5008910;28;87486;-48
2024/01/27 09:59:58;;;;;;;;;;;1.70;88.80;;;;;;5008234;28;86276;-48
2024/01/27 10:02:24;;;;;;;;;;;1.70;88.70;;;;;;5007633;28;88431;-51
2024/01/27 10:04:50;;;;;;;;;;;1.70;88.80;;;;;;5007877;28;87977;-50
2024/01/27 10:07:16;;;;;;;;;;;1.70;88.80;;;;;;5011126;28;87972;-49
2024/01/27 10:09:42;;;;;;;;;;;1.70;88.70;;;;;;5008129;28;87479;-49
2024/01/27 10:12:09;;;;;;;;;;;1.70;88.90;;;;;;5007531;28;86979;-48
2024/01/27 10:14:41;;;;;;;;;;;1.70;88.60;;;;;;5008773;28;86883;-49
2024/01/27 10:17:10;;;;;;;;;;;1.70;88.70;;;;;;5008450;28;87446;-51
2024/01/27 10:19:36;;;;;;;;;;;1.70;88.70;;;;;;5007812;28;86979;-51
2024/01/27 10:22:02;;;;;;;;;;;1.70;88.80;;;;;;5004119;28;86973;-51
2024/01/27 10:24:28;;;;;;;;;;;1.70;88.70;;;;;;5008650;28;87718;-51
2024/01/27 10:27:01;;;;;;;;;;;1.70;88.60;;;;;;5008099;28;87536;-48
2024/01/27 10:29:26;;;;;;;;;;;1.80;88.70;;;;;;5009361;28;86943;-48
2024/01/27 10:31:52;;;;;;;;;;;1.80;88.70;;;;;;5007484;28;87935;-48
2024/01/27 10:34:20;;;;;;;;;;;1.70;88.60;;;;;;5008396;28;87704;-49
2024/01/27 10:36:46;;;;;;;;;;;1.80;88.90;;;;;;5007210;28;87416;-48
2024/01/27 10:39:16;;;;;;;;;;;1.80;88.80;;;;;;5007320;28;87088;-48
2024/01/27 10:41:43;;;;;;;;;;;1.80;88.90;;;;;;5008246;28;87044;-48
2024/01/27 10:44:10;;;;;;;;;;;1.80;88.80;;;;;;5008081;28;87036;-48
2024/01/27 10:46:35;;;;;;;;;;;1.80;89.00;;;;;;5006997;28;87055;-47
2024/01/27 10:49:02;;;;;;;;;;;1.80;89.10;;;;;;5008860;28;86074;-49
2024/01/27 10:51:31;;;;;;;;;;;1.80;88.90;;;;;;5009587;28;87540;-48
2024/01/27 10:54:10;;;;;;;;;;;1.80;89.00;;;;;;5007718;28;87569;-49
2024/01/27 10:56:37;;;;;;;;;;;1.80;88.90;;;;;;5007268;28;88451;-48
2024/01/27 10:59:04;;;;;;;;;;;1.80;89.00;;;;;;5006893;28;86938;-48
2024/01/27 11:01:31;;;;;;;;;;;1.80;89.00;;;;;;5004274;28;87186;-51
2024/01/27 11:03:58;;;;;;;;;;;1.70;89.20;;;;;;5004207;28;88477;-50
2024/01/27 11:06:23;;;;;;;;;;;1.80;89.30;;;;;;5007123;28;86986;-48
2024/01/27 11:08:49;;;;;;;;;;;1.80;89.50;;;;;;5007199;28;87822;-49
2024/01/27 11:11:15;;;;;;;;;;;1.80;89.20;;;;;;5010405;28;87240;-48
2024/01/27 11:13:41;;;;;;;;;;;1.80;89.20;;;;;;5007725;28;86861;-50
2024/01/27 11:16:14;;;;;;;;;;;1.80;89.10;;;;;;5006551;28;87513;-48
2024/01/27 11:18:41;;;;;;;;;;;1.80;89.50;;;;;;5001680;28;87018;-48
2024/01/27 11:21:12;;;;;;;;;;;1.80;89.20;;;;;;5004990;28;87957;-48
2024/01/27 11:23:37;;;;;;;;;;;1.80;89.20;;;;;;5006849;28;87592;-48
2024/01/27 11:26:06;;;;;;;;;;;1.80;89.20;;;;;;5006858;28;86915;-49
2024/01/27 11:28:32;;;;;;;;;;;1.80;89.10;;;;;;5007019;28;87341;-48
2024/01/27 11:30:58;;;;;;;;;;;1.80;89.10;;;;;;5006550;28;88485;-47
2024/01/27 11:33:26;;;;;;;;;;;1.80;89.10;;;;;;5010457;28;87001;-49
2024/01/27 11:36:04;;;;;;;;;;;1.80;89.20;;;;;;5006068;28;88791;-48
2024/01/27 11:38:31;;;;;;;;;;;1.80;89.20;;;;;;5007326;28;86237;-47
2024/01/27 11:40:56;;;;;;;;;;;1.80;89.20;;;;;;5007411;28;86888;-48
2024/01/27 11:43:22;;;;;;;;;;;1.90;89.10;;;;;;5007182;28;87347;-49
2024/01/27 11:46:00;;;;;;;;;;;1.80;89.20;;;;;;5005010;28;87946;-48
2024/01/27 11:48:26;;;;;;;;;;;1.90;89.20;;;;;;5004358;28;89063;-52
2024/01/27 11:51:11;;;;;;;;;;;1.80;89.20;;;;;;5006629;28;88537;-48
2024/01/27 11:53:36;;;;;;;;;;;1.80;89.30;;;;;;5005463;28;86993;-52
2024/01/27 11:56:03;;;;;;;;;;;1.80;89.30;;;;;;5009150;28;86962;-50
2024/01/27 11:58:30;;;;;;;;;;;1.80;89.30;;;;;;5004310;28;86974;-48
2024/01/27 12:00:56;;;;;;;;;;;1.90;89.30;;;;;;5006028;28;87797;-49
2024/01/27 12:03:21;;;;;;;;;;;1.90;89.20;;;;;;5006510;28;86952;-49
2024/01/27 12:05:47;;;;;;;;;;;1.90;89.00;;;;;;5006460;28;86977;-49
2024/01/27 12:08:12;;;;;;;;;;;1.90;89.30;;;;;;5005399;28;86978;-48
2024/01/27 12:10:38;;;;;;;;;;;1.90;89.20;;;;;;5005432;28;88373;-48
2024/01/27 12:13:04;;;;;;;;;;;1.90;89.00;;;;;;5005714;28;87143;-48
2024/01/27 12:15:29;;;;;;;;;;;1.90;88.90;;;;;;5006353;28;86946;-48
2024/01/27 12:17:55;;;;;;;;;;;1.90;89.10;;;;;;5009231;28;88583;-48
2024/01/27 12:20:22;;;;;;;;;;;1.90;89.10;;;;;;5005935;28;87753;-47
2024/01/27 12:22:50;;;;;;;;;;;1.90;89.20;;;;;;5005566;28;88475;-51
2024/01/27 12:25:16;;;;;;;;;;;1.90;89.20;;;;;;5006596;28;86959;-49
2024/01/27 12:27:42;;;;;;;;;;;1.90;89.20;;;;;;5007101;28;87093;-51
2024/01/27 12:30:08;;;;;;;;;;;1.90;89.10;;;;;;5006484;28;87247;-48
2024/01/27 12:32:33;;;;;;;;;;;1.90;89.20;;;;;;5006224;28;86908;-51
2024/01/27 12:35:04;;;;;;;;;;;1.90;89.30;;;;;;5005546;28;87961;-51
2024/01/27 12:37:29;;;;;;;;;;;1.90;88.90;;;;;;5005159;28;88401;-49
2024/01/27 12:39:55;;;;;;;;;;;1.90;89.20;;;;;;5008454;28;86929;-51
2024/01/27 12:42:20;;;;;;;;;;;1.90;89.10;;;;;;5006208;28;87251;-48
2024/01/27 12:44:46;;;;;;;;;;;1.90;89.10;;;;;;5006453;28;87373;-49
2024/01/27 12:47:11;;;;;;;;;;;1.90;89.20;;;;;;5006503;28;86963;-48
2024/01/27 12:49:38;;;;;;;;;;;2.00;89.10;;;;;;5005855;28;87502;-48
2024/01/27 12:52:04;;;;;;;;;;;2.00;89.10;;;;;;5005926;28;86196;-52
2024/01/27 12:54:29;;;;;;;;;;;2.00;89.00;;;;;;5006217;28;86962;-49
2024/01/27 12:56:56;;;;;;;;;;;2.00;89.10;;;;;;5003131;28;87417;-48
2024/01/27 12:59:21;;;;;;;;;;;2.00;89.00;;;;;;5005162;28;87951;-48
2024/01/27 13:01:47;;;;;;;;;;;2.00;89.00;;;;;;5008460;28;87721;-49
2024/01/27 13:04:12;;;;;;;;;;;2.00;89.00;;;;;;5005498;28;87024;-50
2024/01/27 13:06:38;;;;;;;;;;;2.00;89.00;;;;;;5004575;28;87864;-49
2024/01/27 13:09:04;;;;;;;;;;;2.10;88.90;;;;;;5004799;28;87404;-48
2024/01/27 13:11:29;;;;;;;;;;;2.10;89.00;;;;;;5005702;28;87026;-49
2024/01/27 13:13:55;;;;;;;;;;;2.10;88.90;;;;;;5005999;28;87885;-49
2024/01/27 13:16:20;;;;;;;;;;;2.10;88.90;;;;;;5005667;28;86745;-49
2024/01/27 13:18:46;;;;;;;;;;;2.10;89.50;;;;;;5006140;28;86850;-50
2024/01/27 13:21:12;;;;;;;;;;;2.10;89.20;;;;;;5008174;28;86913;-47
2024/01/27 13:23:37;;;;;;;;;;;2.00;89.00;;;;;;5004076;28;89702;-49
2024/01/27 13:26:03;;;;;;;;;;;2.10;89.10;;;;;;5008963;28;87496;-49
2024/01/27 13:28:28;;;;;;;;;;;2.10;89.00;;;;;;5005577;28;87476;-48
2024/01/27 13:30:55;;;;;;;;;;;2.10;89.20;;;;;;5009028;28;86977;-52
2024/01/27 13:33:21;;;;;;;;;;;2.10;89.10;;;;;;5009149;28;88140;-49
2024/01/27 13:35:46;;;;;;;;;;;2.10;88.90;;;;;;5008637;28;88461;-48
2024/01/27 13:38:12;;;;;;;;;;;2.10;88.80;;;;;;5005790;28;87037;-48
2024/01/27 13:40:38;;;;;;;;;;;2.10;88.90;;;;;;5009470;28;87002;-50
2024/01/27 13:43:04;;;;;;;;;;;2.10;88.90;;;;;;5009896;28;87555;-48
2024/01/27 13:45:29;;;;;;;;;;;2.10;89.00;;;;;;5008680;28;86933;-48
2024/01/27 13:47:55;;;;;;;;;;;2.10;89.10;;;;;;5007077;28;88209;-48
2024/01/27 13:50:21;;;;;;;;;;;2.10;88.90;;;;;;5009372;28;87052;-49
2024/01/27 13:52:48;;;;;;;;;;;2.10;89.00;;;;;;5005974;28;87015;-50
2024/01/27 13:55:13;;;;;;;;;;;2.10;89.10;;;;;;5007737;28;88305;-49
2024/01/27 13:57:40;;;;;;;;;;;2.10;88.80;;;;;;5009128;28;86859;-49
2024/01/27 14:00:06;;;;;;;;;;;2.10;88.90;;;;;;5002130;28;88070;-50
2024/01/27 14:02:32;;;;;;;;;;;2.10;88.90;;;;;;5008055;28;88208;-48
2024/01/27 14:04:57;;;;;;;;;;;2.10;88.90;;;;;;5011792;28;86314;-48
2024/01/27 14:07:23;;;;;;;;;;;2.10;88.80;;;;;;5008316;28;88649;-49
2024/01/27 14:09:49;;;;;;;;;;;2.10;88.90;;;;;;5007751;28;87139;-51
2024/01/27 14:12:15;;;;;;;;;;;2.10;89.20;;;;;;5006890;28;87836;-48
2024/01/27 14:14:41;;;;;;;;;;;2.10;89.20;;;;;;5004657;28;88474;-48
2024/01/27 14:17:10;;;;;;;;;;;2.10;89.30;;;;;;5008715;28;87048;-48
2024/01/27 14:19:36;;;;;;;;;;;2.10;89.00;;;;;;5005008;28;87977;-49
2024/01/27 14:22:02;;;;;;;;;;;2.10;88.90;;;;;;5008012;28;88846;-50
2024/01/27 14:24:28;;;;;;;;;;;2.10;88.80;;;;;;5008119;28;86849;-50